createdAt,value
2019-02-06T00:01:53.559Z,-8.92
2019-02-06T00:07:57.315Z,-8.68
2019-02-06T00:10:44.898Z,-8.67
2019-02-06T00:13:53.662Z,-8.77
2019-02-06T00:19:42.162Z,-8.98
2019-02-06T00:22:10.854Z,-9.07
2019-02-06T00:24:39.129Z,-9.17
2019-02-06T00:27:47.362Z,-9.30
2019-02-06T00:30:35.040Z,-9.42
2019-02-06T00:33:11.825Z,-9.33
2019-02-06T00:35:40.443Z,-9.36
2019-02-06T00:38:48.428Z,-9.18
2019-02-06T00:41:36.045Z,-8.98
2019-02-06T00:44:04.222Z,-9.03
2019-02-06T00:49:32.077Z,-9.12
2019-02-06T00:52:00.255Z,-9.02
2019-02-06T00:54:28.199Z,-9.17
2019-02-06T00:56:56.102Z,-9.23
2019-02-06T01:02:23.878Z,-9.24
2019-02-06T01:05:38.378Z,-9.06
2019-02-06T01:08:08.948Z,-8.98
2019-02-06T01:10:37.139Z,-9.20
2019-02-06T01:13:16.599Z,-9.42
2019-02-06T01:15:45.165Z,-9.54
2019-02-06T01:18:32.576Z,-9.60
2019-02-06T01:21:19.424Z,-9.63
2019-02-06T01:23:47.652Z,-9.58
2019-02-06T01:26:15.838Z,-9.61
2019-02-06T01:28:44.129Z,-9.49
2019-02-06T01:37:04.924Z,-9.88
2019-02-06T01:39:52.569Z,-9.87
2019-02-06T01:42:20.860Z,-9.74
2019-02-06T01:44:48.828Z,-9.48
2019-02-06T01:50:25.941Z,-9.66
2019-02-06T01:52:53.869Z,-9.83
2019-02-06T01:55:22.210Z,-9.90
2019-02-06T01:57:50.351Z,-9.79
2019-02-06T02:00:50.303Z,-9.73
2019-02-06T02:03:18.769Z,-9.61
2019-02-06T02:05:46.654Z,-9.46
2019-02-06T02:08:15.199Z,-9.50
2019-02-06T02:10:55.765Z,-9.44
2019-02-06T02:13:24.354Z,-9.41
2019-02-06T02:19:24.767Z,-9.41
2019-02-06T02:21:53.299Z,-9.38
2019-02-06T02:24:21.960Z,-9.40
2019-02-06T02:26:49.765Z,-9.42
2019-02-06T02:29:18.072Z,-9.50
2019-02-06T02:31:47.289Z,-9.58
2019-02-06T02:34:15.819Z,-9.59
2019-02-06T02:36:44.386Z,-9.57
2019-02-06T02:45:22.239Z,-9.69
2019-02-06T02:47:50.155Z,-9.74
2019-02-06T02:59:33.923Z,-10.09
2019-02-06T03:05:02.095Z,-10.07
2019-02-06T03:07:29.937Z,-10.01
2019-02-06T03:12:59.406Z,-10.28
2019-02-06T03:16:08.017Z,-10.39
2019-02-06T03:18:36.213Z,-10.45
2019-02-06T03:21:56.659Z,-10.53
2019-02-06T03:24:25.195Z,-10.62
2019-02-06T03:26:53.733Z,-10.63
2019-02-06T03:29:21.940Z,-10.53
2019-02-06T03:31:50.491Z,-10.50
2019-02-06T03:34:30.330Z,-10.58
2019-02-06T03:36:58.609Z,-10.69
2019-02-06T03:39:27.223Z,-10.41
2019-02-06T03:41:54.993Z,-10.11
2019-02-06T03:44:23.709Z,-9.98
2019-02-06T03:50:03.988Z,-10.31
2019-02-06T03:55:33.849Z,-10.23
2019-02-06T03:58:02.131Z,-10.45
2019-02-06T04:03:29.975Z,-10.71
2019-02-06T04:06:10.380Z,-10.61
2019-02-06T04:08:38.761Z,-10.47
2019-02-06T04:16:47.855Z,-10.75
2019-02-06T04:19:55.834Z,-10.85
2019-02-06T04:25:44.486Z,-10.83
2019-02-06T04:28:13.069Z,-10.66
2019-02-06T04:30:40.990Z,-10.52
2019-02-06T04:33:09.238Z,-10.62
2019-02-06T04:35:37.823Z,-10.81
2019-02-06T04:38:05.760Z,-10.82
2019-02-06T04:43:35.054Z,-10.67
2019-02-06T04:49:05.680Z,-10.58
2019-02-06T04:51:33.979Z,-10.62
2019-02-06T04:56:41.803Z,-10.79
2019-02-06T04:59:10.415Z,-10.84
2019-02-06T05:01:38.894Z,-10.93
2019-02-06T05:07:27.877Z,-11.24
2019-02-06T05:10:15.504Z,-11.30
2019-02-06T05:13:35.502Z,-11.07
2019-02-06T05:16:04.052Z,-10.89
2019-02-06T05:21:41.264Z,-10.83
2019-02-06T05:30:39.527Z,-11.30
2019-02-06T05:33:08.200Z,-11.42
2019-02-06T05:35:36.415Z,-11.55
2019-02-06T05:38:12.905Z,-11.58
2019-02-06T05:40:41.105Z,-11.56
2019-02-06T05:46:11.346Z,-11.27
2019-02-06T05:48:39.911Z,-11.36
2019-02-06T05:51:48.535Z,-11.38
2019-02-06T05:54:28.368Z,-11.49
2019-02-06T05:56:56.648Z,-11.56
2019-02-06T05:59:24.500Z,-11.59
2019-02-06T06:01:52.427Z,-11.62
2019-02-06T06:04:20.681Z,-11.64
2019-02-06T06:07:29.297Z,-11.60
2019-02-06T06:10:16.613Z,-11.65
2019-02-06T06:12:52.671Z,-11.72
2019-02-06T06:19:11.794Z,-11.79
2019-02-06T06:21:40.340Z,-11.83
2019-02-06T06:27:29.792Z,-11.49
2019-02-06T06:30:29.429Z,-11.49
2019-02-06T06:35:59.191Z,-11.45
2019-02-06T06:41:29.213Z,-11.40
2019-02-06T06:43:57.466Z,-11.45
2019-02-06T06:46:25.281Z,-11.34
2019-02-06T06:49:12.280Z,-11.42
2019-02-06T06:51:52.229Z,-11.61
2019-02-06T06:58:00.538Z,-11.75
2019-02-06T07:00:47.395Z,-11.79
2019-02-06T07:03:16.041Z,-11.72
2019-02-06T07:06:03.576Z,-11.74
2019-02-06T07:08:43.133Z,-11.66
2019-02-06T07:11:11.713Z,-11.66
2019-02-06T07:13:40.288Z,-11.66
2019-02-06T07:16:08.745Z,-11.64
2019-02-06T07:18:56.279Z,-11.56
2019-02-06T07:24:43.608Z,-11.27
2019-02-06T07:27:23.533Z,-11.27
2019-02-06T07:29:52.429Z,-11.06
2019-02-06T07:32:20.613Z,-11.00
2019-02-06T07:41:06.538Z,-10.60
2019-02-06T07:46:36.470Z,-10.70
2019-02-06T07:49:04.820Z,-10.62
2019-02-06T07:57:47.079Z,-10.33
2019-02-06T08:00:34.848Z,-10.12
2019-02-06T08:03:03.408Z,-9.78
2019-02-06T08:05:50.986Z,-9.75
2019-02-06T08:08:18.835Z,-9.70
2019-02-06T08:10:47.496Z,-9.72
2019-02-06T08:13:15.804Z,-9.72
2019-02-06T08:15:43.698Z,-9.69
2019-02-06T08:18:12.290Z,-9.49
2019-02-06T08:20:40.493Z,-9.37
2019-02-06T08:23:08.536Z,-9.28
2019-02-06T08:28:38.251Z,-9.03
2019-02-06T08:31:06.445Z,-8.98
2019-02-06T08:33:34.685Z,-8.96
2019-02-06T08:36:03.232Z,-8.99
2019-02-06T08:39:02.300Z,-8.97
2019-02-06T08:44:22.465Z,-8.73
2019-02-06T08:50:03.620Z,-8.37
2019-02-06T08:53:02.883Z,-8.28
2019-02-06T08:58:51.026Z,-7.95
2019-02-06T09:01:19.425Z,-7.62
2019-02-06T09:06:48.722Z,-7.42
2019-02-06T09:09:17.265Z,-7.33
2019-02-06T09:14:46.863Z,-6.99
2019-02-06T09:17:55.472Z,-6.89
2019-02-06T09:20:31.938Z,-6.79
2019-02-06T09:28:52.497Z,-6.20
2019-02-06T09:31:21.147Z,-6.03
2019-02-06T09:34:29.445Z,-5.93
2019-02-06T09:36:57.747Z,-5.79
2019-02-06T09:42:27.585Z,-5.39
2019-02-06T09:44:56.270Z,-5.14
2019-02-06T09:47:24.811Z,-4.92
2019-02-06T09:49:53.036Z,-4.83
2019-02-06T09:52:21.610Z,-4.59
2019-02-06T09:54:50.151Z,-4.05
2019-02-06T09:57:30.040Z,-3.42
2019-02-06T09:59:58.352Z,-2.90
2019-02-06T10:02:26.610Z,-2.26
2019-02-06T10:04:54.846Z,-1.78
2019-02-06T10:07:23.018Z,-1.11
2019-02-06T10:09:50.850Z,-0.64
2019-02-06T10:12:19.344Z,-0.25
2019-02-06T10:14:47.555Z,-0.11
2019-02-06T10:17:16.007Z,0.18
2019-02-06T10:19:44.196Z,0.29
2019-02-06T10:22:12.779Z,0.32
2019-02-06T10:24:41.259Z,0.34
2019-02-06T10:27:09.141Z,0.39
2019-02-06T10:29:37.712Z,0.46
2019-02-06T10:32:06.407Z,0.66
2019-02-06T10:34:34.936Z,0.97
2019-02-06T10:37:03.628Z,1.02
2019-02-06T10:39:34.624Z,1.14
2019-02-06T10:42:08.560Z,1.20
2019-02-06T10:44:36.745Z,1.37
2019-02-06T10:47:04.435Z,1.56
2019-02-06T10:49:33.095Z,1.76
2019-02-06T10:52:00.957Z,1.70
2019-02-06T10:54:29.540Z,1.78
2019-02-06T10:56:57.722Z,1.81
2019-02-06T10:59:37.356Z,1.68
2019-02-06T11:02:05.757Z,1.69
2019-02-06T11:04:34.033Z,1.92
2019-02-06T11:10:29.320Z,2.36
2019-02-06T11:13:37.961Z,2.83
2019-02-06T11:19:06.938Z,3.50
2019-02-06T11:21:35.225Z,3.97
2019-02-06T11:24:03.840Z,4.18
2019-02-06T11:27:12.386Z,4.29
2019-02-06T11:29:41.102Z,4.44
2019-02-06T11:32:09.856Z,4.66
2019-02-06T11:34:49.404Z,5.10
2019-02-06T11:40:38.303Z,5.61
2019-02-06T11:43:46.963Z,5.52
2019-02-06T11:46:15.600Z,5.51
2019-02-06T11:51:52.311Z,5.66
2019-02-06T11:54:20.301Z,6.07
2019-02-06T11:56:48.225Z,6.58
2019-02-06T11:59:17.225Z,7.05
2019-02-06T12:01:49.707Z,7.66
2019-02-06T12:04:17.565Z,8.08
2019-02-06T12:06:57.902Z,8.34
2019-02-06T12:09:45.571Z,8.50
2019-02-06T12:12:54.302Z,8.60
2019-02-06T12:15:37.560Z,8.63
2019-02-06T12:18:44.300Z,8.53
2019-02-06T12:21:12.416Z,8.36
2019-02-06T12:23:41.008Z,8.19
2019-02-06T12:26:09.565Z,7.70
2019-02-06T12:28:37.071Z,7.48
2019-02-06T12:31:05.746Z,7.46
2019-02-06T12:33:36.545Z,7.27
2019-02-06T12:36:09.784Z,7.20
2019-02-06T12:38:38.142Z,7.18
2019-02-06T12:43:46.408Z,6.59
2019-02-06T12:46:54.685Z,6.58
2019-02-06T12:49:41.908Z,6.66
2019-02-06T12:52:10.700Z,6.77
2019-02-06T12:54:38.981Z,7.16
2019-02-06T12:57:37.120Z,7.71
2019-02-06T13:00:32.092Z,8.46
2019-02-06T13:06:01.781Z,8.57
2019-02-06T13:17:33.463Z,9.59
2019-02-06T13:20:01.981Z,10.13
2019-02-06T13:26:19.340Z,9.71
2019-02-06T13:35:01.465Z,9.21
2019-02-06T13:40:50.474Z,8.63
2019-02-06T13:46:26.723Z,10.08
2019-02-06T13:49:02.619Z,10.83
2019-02-06T13:51:30.586Z,11.63
2019-02-06T13:57:19.152Z,13.38
2019-02-06T14:03:28.916Z,13.85
2019-02-06T14:09:39.650Z,13.82
2019-02-06T14:15:10.879Z,13.82
2019-02-06T14:17:39.390Z,13.98
2019-02-06T14:23:38.123Z,15.66
2019-02-06T14:26:44.465Z,16.33
2019-02-06T14:29:39.245Z,16.24
2019-02-06T14:32:29.646Z,15.78
2019-02-06T14:35:20.810Z,15.27
2019-02-06T14:38:27.492Z,14.55
2019-02-06T14:41:34.141Z,14.40
2019-02-06T14:44:40.728Z,13.74
2019-02-06T14:47:31.140Z,13.53
2019-02-06T14:50:30.776Z,14.07
2019-02-06T14:53:21.790Z,13.75
2019-02-06T14:59:59.303Z,12.89
2019-02-06T15:03:05.999Z,13.19
2019-02-06T15:06:12.640Z,13.24
2019-02-06T15:09:18.971Z,12.97
2019-02-06T15:12:25.652Z,13.01
2019-02-06T15:15:32.260Z,13.21
2019-02-06T15:18:38.961Z,12.78
2019-02-06T15:21:38.777Z,12.28
2019-02-06T15:24:45.646Z,12.18
2019-02-06T15:27:52.471Z,11.93
2019-02-06T15:30:59.191Z,11.90
2019-02-06T15:34:05.515Z,11.98
2019-02-06T15:37:16.726Z,11.44
2019-02-06T15:40:23.111Z,10.84
2019-02-06T15:43:37.469Z,10.22
2019-02-06T15:46:44.182Z,10.14
2019-02-06T15:49:24.252Z,10.24
2019-02-06T15:52:45.101Z,10.19
2019-02-06T15:59:20.410Z,9.24
2019-02-06T16:02:27.088Z,8.90
2019-02-06T16:08:57.598Z,5.35
2019-02-06T16:12:04.296Z,3.98
2019-02-06T16:15:11.347Z,3.04
2019-02-06T16:22:05.406Z,1.61
2019-02-06T16:28:35.002Z,0.45
2019-02-06T16:35:16.030Z,-0.01
2019-02-06T16:38:22.397Z,0.06
2019-02-06T16:41:29.071Z,-0.24
2019-02-06T16:47:55.102Z,-0.74
2019-02-06T16:50:45.484Z,-0.98
2019-02-06T16:53:36.202Z,-1.14
2019-02-06T16:56:42.822Z,-1.27
2019-02-06T16:59:49.580Z,-1.41
2019-02-06T17:02:56.244Z,-1.50
2019-02-06T17:06:02.658Z,-1.45
2019-02-06T17:09:23.048Z,-1.45
2019-02-06T17:12:36.271Z,-1.46
2019-02-06T17:15:43.095Z,-1.67
2019-02-06T17:18:49.446Z,-1.87
2019-02-06T17:21:42.188Z,-2.01
2019-02-06T17:24:43.582Z,-1.96
2019-02-06T17:27:34.756Z,-1.94
2019-02-06T17:30:14.946Z,-1.95
2019-02-06T17:33:21.296Z,-1.76
2019-02-06T17:36:27.952Z,-1.79
2019-02-06T17:39:32.732Z,-1.91
2019-02-06T17:45:30.300Z,-2.03
2019-02-06T17:48:37.198Z,-2.09
2019-02-06T17:51:44.047Z,-2.15
2019-02-06T17:54:55.656Z,-2.10
2019-02-06T17:57:35.431Z,-2.14
2019-02-06T18:00:42.509Z,-2.19
2019-02-06T18:03:51.792Z,-2.36
2019-02-06T18:06:19.712Z,-2.50
2019-02-06T18:08:56.493Z,-2.74
2019-02-06T18:11:37.454Z,-2.79
2019-02-06T18:14:45.806Z,-2.82
2019-02-06T18:20:34.277Z,-2.86
2019-02-06T18:23:53.908Z,-2.81
2019-02-06T18:26:22.125Z,-2.83
2019-02-06T18:29:38.847Z,-2.85
2019-02-06T18:32:18.646Z,-2.88
2019-02-06T18:34:47.051Z,-2.94
2019-02-06T18:37:55.834Z,-3.06
2019-02-06T18:40:34.903Z,-2.95
2019-02-06T18:43:02.130Z,-3.03
2019-02-06T18:45:42.379Z,-3.13
2019-02-06T18:48:50.984Z,-3.27
2019-02-06T18:51:38.230Z,-3.36
2019-02-06T18:54:48.571Z,-3.55
2019-02-06T18:57:16.836Z,-3.59
2019-02-06T19:06:10.320Z,-3.19
2019-02-06T19:09:10.064Z,-3.20
2019-02-06T19:11:37.586Z,-3.14
2019-02-06T19:14:06.248Z,-3.14
2019-02-06T19:19:55.635Z,-2.81
2019-02-06T19:22:33.040Z,-2.78
2019-02-06T19:25:09.503Z,-2.89
2019-02-06T19:27:38.034Z,-2.78
2019-02-06T19:30:28.666Z,-2.73
2019-02-06T19:32:57.374Z,-2.69
2019-02-06T19:35:26.148Z,-2.71
2019-02-06T19:37:54.435Z,-2.69
2019-02-06T19:40:22.341Z,-2.88
2019-02-06T19:43:00.147Z,-2.99
2019-02-06T19:48:34.232Z,-3.13
2019-02-06T19:51:21.217Z,-3.11
2019-02-06T19:54:37.828Z,-3.08
2019-02-06T19:57:06.297Z,-3.15
2019-02-06T20:06:27.913Z,-3.39
2019-02-06T20:09:23.649Z,-3.38
2019-02-06T20:12:31.964Z,-3.36
2019-02-06T20:18:31.604Z,-3.37
2019-02-06T20:21:18.952Z,-3.43
2019-02-06T20:26:47.114Z,-3.67
2019-02-06T20:32:37.797Z,-3.93
2019-02-06T20:35:46.733Z,-3.99
2019-02-06T20:38:46.315Z,-3.96
2019-02-06T20:41:13.948Z,-3.96
2019-02-06T20:43:54.397Z,-3.90
2019-02-06T20:52:03.400Z,-3.84
2019-02-06T20:55:11.713Z,-3.85
2019-02-06T20:57:41.269Z,-3.88
2019-02-06T21:03:55.916Z,-3.81
2019-02-06T21:06:24.134Z,-3.69
2019-02-06T21:12:14.187Z,-3.79
2019-02-06T21:21:04.071Z,-3.83
2019-02-06T21:23:31.559Z,-3.90
2019-02-06T21:32:21.058Z,-4.21
2019-02-06T21:34:50.501Z,-4.08
2019-02-06T21:37:19.083Z,-4.06
2019-02-06T21:40:09.778Z,-3.94
2019-02-06T21:51:39.190Z,-4.55
2019-02-06T21:54:47.729Z,-4.62
2019-02-06T21:57:28.187Z,-4.55
2019-02-06T22:00:18.983Z,-4.48
2019-02-06T22:03:27.334Z,-4.58
2019-02-06T22:05:55.600Z,-4.67
2019-02-06T22:08:23.999Z,-4.77
2019-02-06T22:11:04.012Z,-4.83
2019-02-06T22:13:32.496Z,-4.79
2019-02-06T22:16:41.178Z,-4.83
2019-02-06T22:19:28.020Z,-4.83
2019-02-06T22:21:56.192Z,-4.86
2019-02-06T22:24:24.712Z,-4.89
2019-02-06T22:27:32.977Z,-4.96
2019-02-06T22:30:39.583Z,-4.90
2019-02-06T22:33:08.448Z,-4.95
2019-02-06T22:35:36.628Z,-5.00
2019-02-06T22:41:07.305Z,-4.89
2019-02-06T22:43:36.176Z,-4.84
2019-02-06T22:46:44.578Z,-4.83
2019-02-06T22:49:24.773Z,-4.89
2019-02-06T22:51:52.983Z,-5.05
2019-02-06T22:54:20.865Z,-5.08
2019-02-06T23:03:15.669Z,-5.24
2019-02-06T23:08:52.723Z,-5.57
2019-02-06T23:11:21.017Z,-5.72
2019-02-06T23:13:48.762Z,-5.94
2019-02-06T23:16:17.374Z,-6.01
2019-02-06T23:18:45.914Z,-6.03
2019-02-06T23:21:14.139Z,-5.96
2019-02-06T23:23:42.427Z,-5.86
2019-02-06T23:26:10.947Z,-5.89
2019-02-06T23:28:38.514Z,-6.03
2019-02-06T23:31:06.664Z,-6.09
2019-02-06T23:33:35.195Z,-6.14
2019-02-06T23:36:43.904Z,-6.35
2019-02-06T23:39:31.114Z,-6.46
2019-02-06T23:42:10.813Z,-6.54
2019-02-06T23:44:39.018Z,-6.57
2019-02-06T23:47:07.584Z,-6.63
2019-02-06T23:50:07.139Z,-6.69
2019-02-06T23:55:35.925Z,-6.62
2019-02-06T23:58:15.830Z,-6.63
